createdAt,value
2019-04-19T00:01:02.715Z,96166.20
2019-04-19T00:03:32.187Z,96166.80
2019-04-19T00:08:43.597Z,96166.42
2019-04-19T00:11:12.983Z,96168.72
2019-04-19T00:13:26.359Z,96168.09
2019-04-19T00:15:54.460Z,96173.36
2019-04-19T00:21:13.772Z,96167.21
2019-04-19T00:23:33.066Z,96169.78
2019-04-19T00:25:54.015Z,96171.48
2019-04-19T00:28:32.269Z,96173.08
2019-04-19T00:33:33.035Z,96172.33
2019-04-19T00:35:53.814Z,96178.13
2019-04-19T00:38:38.320Z,96180.56
2019-04-19T00:41:09.291Z,96178.09
2019-04-19T00:46:17.152Z,96171.44
2019-04-19T00:48:39.862Z,96166.44
2019-04-19T00:53:36.480Z,96167.09
2019-04-19T00:56:05.771Z,96164.76
2019-04-19T00:58:29.414Z,96171.37
2019-04-19T01:00:57.914Z,96171.72
2019-04-19T01:03:30.740Z,96168.93
2019-04-19T01:05:59.045Z,96164.09
2019-04-19T01:08:24.015Z,96166.78
2019-04-19T01:11:06.055Z,96168.07
2019-04-19T01:13:38.250Z,96169.04
2019-04-19T01:23:29.419Z,96167.72
2019-04-19T01:26:03.555Z,96176.44
2019-04-19T01:28:28.644Z,96182.89
2019-04-19T01:30:54.951Z,96182.05
2019-04-19T01:33:31.138Z,96181.48
2019-04-19T01:35:56.899Z,96180.59
2019-04-19T01:38:25.186Z,96184.84
2019-04-19T01:43:46.332Z,96181.75
2019-04-19T01:46:11.960Z,96181.95
2019-04-19T01:51:38.884Z,96185.84
2019-04-19T01:54:06.605Z,96188.25
2019-04-19T01:56:16.998Z,96186.92
2019-04-19T01:58:49.197Z,96191.09
2019-04-19T02:01:15.480Z,96192.73
2019-04-19T02:03:44.976Z,96193.60
2019-04-19T02:08:48.043Z,96197.21
2019-04-19T02:11:39.814Z,96193.31
2019-04-19T02:14:05.948Z,96193.11
2019-04-19T02:16:28.234Z,96192.30
2019-04-19T02:19:02.299Z,96193.33
2019-04-19T02:21:28.974Z,96191.81
2019-04-19T02:23:54.701Z,96198.11
2019-04-19T02:29:02.604Z,96199.28
2019-04-19T02:31:43.525Z,96193.72
2019-04-19T02:37:04.545Z,96194.72
2019-04-19T02:41:58.014Z,96197.34
2019-04-19T02:44:17.118Z,96202.31
2019-04-19T02:46:55.903Z,96201.66
2019-04-19T02:49:21.822Z,96204.14
2019-04-19T02:51:50.226Z,96209.90
2019-04-19T02:59:26.342Z,96212.33
2019-04-19T03:06:36.779Z,96213.50
2019-04-19T03:08:54.522Z,96211.79
2019-04-19T03:11:35.306Z,96213.87
2019-04-19T03:16:49.242Z,96218.34
2019-04-19T03:19:05.814Z,96220.06
2019-04-19T03:21:40.677Z,96219.17
2019-04-19T03:24:08.806Z,96222.94
2019-04-19T03:28:59.066Z,96222.07
2019-04-19T03:31:58.896Z,96224.02
2019-04-19T03:36:39.075Z,96226.07
2019-04-19T03:39:15.838Z,96232.25
2019-04-19T03:41:57.399Z,96232.26
2019-04-19T03:44:18.479Z,96234.91
2019-04-19T03:46:55.858Z,96233.75
2019-04-19T03:49:19.756Z,96237.50
2019-04-19T03:51:40.987Z,96238.36
2019-04-19T03:54:08.318Z,96235.86
2019-04-19T03:56:37.780Z,96242.04
2019-04-19T03:58:48.301Z,96242.68
2019-04-19T04:01:17.505Z,96247.52
2019-04-19T04:03:49.720Z,96252.42
2019-04-19T04:09:00.387Z,96249.36
2019-04-19T04:11:27.775Z,96254.09
2019-04-19T04:14:13.878Z,96255.11
2019-04-19T04:18:59.852Z,96256.27
2019-04-19T04:21:35.434Z,96260.78
2019-04-19T04:24:10.100Z,96259.13
2019-04-19T04:26:34.848Z,96259.15
2019-04-19T04:29:06.928Z,96260.88
2019-04-19T04:31:28.146Z,96260.31
2019-04-19T04:34:00.550Z,96261.08
2019-04-19T04:36:36.227Z,96261.52
2019-04-19T04:38:49.542Z,96261.91
2019-04-19T04:41:21.776Z,96266.46
2019-04-19T04:44:06.911Z,96270.62
2019-04-19T04:46:41.306Z,96276.67
2019-04-19T04:49:07.192Z,96278.69
2019-04-19T04:51:39.337Z,96278.55
2019-04-19T04:53:55.340Z,96282.61
2019-04-19T04:56:27.877Z,96287.27
2019-04-19T04:58:53.981Z,96279.61
2019-04-19T05:01:33.254Z,96288.21
2019-04-19T05:04:07.392Z,96291.93
2019-04-19T05:06:35.279Z,96296.58
2019-04-19T05:09:04.117Z,96295.98
2019-04-19T05:11:30.542Z,96297.66
2019-04-19T05:14:08.185Z,96307.08
2019-04-19T05:16:51.342Z,96305.77
2019-04-19T05:19:00.637Z,96310.33
2019-04-19T05:21:28.572Z,96307.94
2019-04-19T05:23:59.662Z,96310.66
2019-04-19T05:28:50.200Z,96313.36
2019-04-19T05:31:09.016Z,96314.52
2019-04-19T05:33:47.492Z,96315.17
2019-04-19T05:36:17.794Z,96316.64
2019-04-19T05:38:56.049Z,96319.90
2019-04-19T05:41:12.242Z,96322.34
2019-04-19T05:44:21.931Z,96324.46
2019-04-19T05:46:44.375Z,96322.55
2019-04-19T05:49:04.743Z,96325.15
2019-04-19T05:51:38.692Z,96321.41
2019-04-19T05:53:51.882Z,96321.81
2019-04-19T05:56:15.740Z,96326.56
2019-04-19T05:58:55.764Z,96332.56
2019-04-19T06:01:34.268Z,96332.50
2019-04-19T06:03:57.406Z,96333.72
2019-04-19T06:06:33.668Z,96334.61
2019-04-19T06:08:39.362Z,96335.08
2019-04-19T06:11:07.326Z,96338.48
2019-04-19T06:13:36.401Z,96339.93
2019-04-19T06:16:21.140Z,96342.23
2019-04-19T06:18:46.392Z,96340.58
2019-04-19T06:23:58.406Z,96345.94
2019-04-19T06:26:54.880Z,96346.06
2019-04-19T06:29:02.697Z,96349.55
2019-04-19T06:31:27.034Z,96349.86
2019-04-19T06:33:47.122Z,96349.55
2019-04-19T06:38:35.448Z,96349.45
2019-04-19T06:41:10.303Z,96354.83
2019-04-19T06:46:20.173Z,96354.38
2019-04-19T06:48:43.117Z,96357.58
2019-04-19T06:53:49.462Z,96355.23
2019-04-19T06:56:16.328Z,96355.20
2019-04-19T06:58:46.660Z,96356.73
2019-04-19T07:01:18.169Z,96355.31
2019-04-19T07:03:34.451Z,96357.28
2019-04-19T07:06:19.563Z,96355.28
2019-04-19T07:09:06.255Z,96358.47
2019-04-19T07:11:23.747Z,96357.28
2019-04-19T07:13:41.020Z,96360.30
2019-04-19T07:21:25.893Z,96367.28
2019-04-19T07:23:49.835Z,96366.37
2019-04-19T07:28:34.100Z,96368.98
2019-04-19T07:31:05.957Z,96370.55
2019-04-19T07:33:41.336Z,96372.67
2019-04-19T07:36:17.398Z,96373.50
2019-04-19T07:38:50.641Z,96380.70
2019-04-19T07:41:09.942Z,96382.69
2019-04-19T07:46:21.126Z,96384.84
2019-04-19T07:48:27.864Z,96385.60
2019-04-19T07:51:02.221Z,96386.35
2019-04-19T07:53:32.079Z,96387.73
2019-04-19T07:56:00.809Z,96393.58
2019-04-19T08:01:20.587Z,96396.23
2019-04-19T08:06:32.709Z,96399.30
2019-04-19T08:08:56.648Z,96400.95
2019-04-19T08:13:44.374Z,96396.64
2019-04-19T08:28:26.362Z,96392.31
2019-04-19T08:30:48.654Z,96393.80
2019-04-19T08:33:12.623Z,96395.09
2019-04-19T08:35:46.298Z,96398.89
2019-04-19T08:38:17.579Z,96399.84
2019-04-19T08:40:53.807Z,96401.16
2019-04-19T08:43:21.189Z,96400.42
2019-04-19T08:45:38.256Z,96403.58
2019-04-19T08:48:15.618Z,96400.28
2019-04-19T08:50:55.909Z,96402.64
2019-04-19T08:56:11.670Z,96397.78
2019-04-19T08:58:43.322Z,96401.21
2019-04-19T09:03:51.231Z,96400.12
2019-04-19T09:07:05.464Z,96389.29
2019-04-19T09:11:16.078Z,96393.75
2019-04-19T09:13:51.029Z,96395.97
2019-04-19T09:18:59.518Z,96397.14
2019-04-19T09:21:16.928Z,96396.17
2019-04-19T09:23:38.665Z,96397.69
2019-04-19T09:26:09.829Z,96391.44
2019-04-19T09:28:46.342Z,96391.48
2019-04-19T09:31:09.912Z,96393.70
2019-04-19T09:33:29.589Z,96394.23
2019-04-19T09:35:58.679Z,96390.89
2019-04-19T09:38:32.585Z,96384.05
2019-04-19T09:40:55.861Z,96383.88
2019-04-19T09:43:28.973Z,96380.67
2019-04-19T09:45:44.955Z,96381.07
2019-04-19T09:48:31.636Z,96386.19
2019-04-19T09:50:56.097Z,96386.59
2019-04-19T09:53:39.588Z,96383.76
2019-04-19T09:55:57.203Z,96387.87
2019-04-19T09:58:26.512Z,96380.75
2019-04-19T10:00:38.836Z,96376.11
2019-04-19T10:03:18.866Z,96378.33
2019-04-19T10:08:11.452Z,96382.20
2019-04-19T10:10:38.864Z,96379.06
2019-04-19T10:13:07.744Z,96369.95
2019-04-19T10:15:36.250Z,96370.65
2019-04-19T10:18:04.780Z,96370.78
2019-04-19T10:20:32.982Z,96374.34
2019-04-19T10:23:02.235Z,96380.63
2019-04-19T10:25:29.636Z,96381.53
2019-04-19T10:27:57.804Z,96381.82
2019-04-19T10:30:37.048Z,96372.23
2019-04-19T10:33:06.603Z,96371.14
2019-04-19T10:35:33.739Z,96374.02
2019-04-19T10:38:02.107Z,96364.81
2019-04-19T10:43:05.185Z,96371.42
2019-04-19T10:45:34.192Z,96367.94
2019-04-19T10:48:02.479Z,96364.97
2019-04-19T10:50:41.964Z,96363.97
2019-04-19T10:53:01.156Z,96361.46
2019-04-19T10:55:31.970Z,96368.69
2019-04-19T10:58:01.133Z,96358.96
2019-04-19T11:00:29.292Z,96357.80
2019-04-19T11:02:57.050Z,96361.39
2019-04-19T11:05:25.500Z,96361.22
2019-04-19T11:07:53.882Z,96362.95
2019-04-19T11:10:22.224Z,96358.65
2019-04-19T11:12:50.579Z,96355.75
2019-04-19T11:15:20.243Z,96359.00
2019-04-19T11:17:49.779Z,96352.52
2019-04-19T11:20:30.843Z,96352.39
2019-04-19T11:22:45.995Z,96355.30
2019-04-19T11:25:14.395Z,96348.77
2019-04-19T11:27:42.884Z,96350.34
2019-04-19T11:30:10.903Z,96347.38
2019-04-19T11:35:17.188Z,96349.66
2019-04-19T11:40:22.705Z,96357.58
2019-04-19T11:42:51.214Z,96345.97
2019-04-19T11:45:19.754Z,96347.94
2019-04-19T11:47:49.052Z,96348.73
2019-04-19T11:50:17.831Z,96340.78
2019-04-19T11:52:45.960Z,96342.42
2019-04-19T11:55:13.165Z,96342.63
2019-04-19T11:57:41.856Z,96341.45
2019-04-19T12:00:11.463Z,96334.27
2019-04-19T12:02:39.954Z,96342.70
2019-04-19T12:05:17.666Z,96342.53
2019-04-19T12:07:36.803Z,96348.14
2019-04-19T12:10:04.719Z,96347.33
2019-04-19T12:12:33.152Z,96338.97
2019-04-19T12:17:35.962Z,96354.89
2019-04-19T12:25:12.893Z,96338.06
2019-04-19T12:27:41.558Z,96341.48
2019-04-19T12:30:09.714Z,96337.35
2019-04-19T12:35:14.469Z,96335.08
2019-04-19T12:37:47.494Z,96332.27
2019-04-19T12:40:15.219Z,96336.77
2019-04-19T12:42:44.203Z,96329.67
2019-04-19T12:45:13.245Z,96331.80
2019-04-19T12:47:40.686Z,96327.03
2019-04-19T12:50:09.874Z,96325.34
2019-04-19T12:52:37.967Z,96326.75
2019-04-19T12:55:05.995Z,96329.11
2019-04-19T12:57:34.075Z,96333.22
2019-04-19T13:02:45.099Z,96327.91
2019-04-19T13:05:14.143Z,96316.68
2019-04-19T13:07:43.079Z,96309.89
2019-04-19T13:10:11.017Z,96306.23
2019-04-19T13:12:39.040Z,96313.09
2019-04-19T13:15:07.194Z,96302.44
2019-04-19T13:17:36.054Z,96304.82
2019-04-19T13:20:12.069Z,96295.59
2019-04-19T13:22:32.474Z,96297.66
2019-04-19T13:25:01.643Z,96300.52
2019-04-19T13:27:41.654Z,96292.70
2019-04-19T13:30:08.749Z,96301.08
2019-04-19T13:32:26.031Z,96298.91
2019-04-19T13:34:54.903Z,96296.67
2019-04-19T13:42:55.227Z,96293.16
2019-04-19T13:45:26.811Z,96293.24
2019-04-19T13:47:48.987Z,96285.94
2019-04-19T13:50:26.088Z,96288.59
2019-04-19T13:52:46.729Z,96279.06
2019-04-19T13:55:14.823Z,96288.89
2019-04-19T13:57:43.630Z,96286.37
2019-04-19T14:00:13.430Z,96271.64
2019-04-19T14:02:41.118Z,96275.39
2019-04-19T14:05:09.410Z,96272.05
2019-04-19T14:07:37.542Z,96276.03
2019-04-19T14:10:05.893Z,96269.75
2019-04-19T14:12:34.272Z,96269.91
2019-04-19T14:15:04.541Z,96270.34
2019-04-19T14:20:07.108Z,96276.08
2019-04-19T14:22:37.369Z,96269.95
2019-04-19T14:25:05.353Z,96267.45
2019-04-19T14:27:33.276Z,96276.56
2019-04-19T14:30:01.664Z,96269.64
2019-04-19T14:35:05.792Z,96262.66
2019-04-19T14:37:34.105Z,96272.08
2019-04-19T14:40:02.770Z,96263.27
2019-04-19T14:42:31.085Z,96264.40
2019-04-19T14:50:07.388Z,96266.72
2019-04-19T14:52:36.600Z,96252.66
2019-04-19T15:00:12.803Z,96254.47
2019-04-19T15:05:25.702Z,96258.99
2019-04-19T15:07:54.577Z,96248.56
2019-04-19T15:10:22.254Z,96248.62
2019-04-19T15:15:24.987Z,96247.94
2019-04-19T15:17:54.088Z,96254.66
2019-04-19T15:22:56.109Z,96252.50
2019-04-19T15:25:25.520Z,96248.38
2019-04-19T15:27:52.958Z,96256.63
2019-04-19T15:32:56.577Z,96244.14
2019-04-19T15:35:25.634Z,96250.63
2019-04-19T15:37:53.992Z,96253.70
2019-04-19T15:42:56.903Z,96253.58
2019-04-19T15:45:25.214Z,96254.95
2019-04-19T15:47:53.277Z,96252.89
2019-04-19T15:50:22.444Z,96258.83
2019-04-19T15:52:51.848Z,96264.03
2019-04-19T15:55:20.406Z,96259.70
2019-04-19T15:57:48.798Z,96262.87
2019-04-19T16:00:18.096Z,96262.10
2019-04-19T16:02:47.848Z,96261.63
2019-04-19T16:05:20.515Z,96264.74
2019-04-19T16:08:04.088Z,96257.44
2019-04-19T16:10:30.859Z,96260.12
2019-04-19T16:12:59.957Z,96262.91
2019-04-19T16:15:27.419Z,96266.30
2019-04-19T16:17:55.812Z,96273.50
2019-04-19T16:22:58.434Z,96265.35
2019-04-19T16:25:27.365Z,96264.37
2019-04-19T16:30:30.465Z,96265.48
2019-04-19T16:35:32.228Z,96260.31
2019-04-19T16:38:01.440Z,96265.14
2019-04-19T16:43:03.545Z,96263.28
2019-04-19T16:45:32.295Z,96268.55
2019-04-19T16:48:00.410Z,96268.54
2019-04-19T16:50:30.384Z,96272.84
2019-04-19T16:52:59.102Z,96266.14
2019-04-19T16:55:27.638Z,96271.65
2019-04-19T17:00:36.544Z,96264.50
2019-04-19T17:03:06.985Z,96268.55
2019-04-19T17:05:34.772Z,96265.83
2019-04-19T17:08:03.655Z,96266.63
2019-04-19T17:10:31.793Z,96268.84
2019-04-19T17:13:01.118Z,96271.91
2019-04-19T17:15:32.777Z,96270.67
2019-04-19T17:20:39.542Z,96270.20
2019-04-19T17:23:08.570Z,96269.52
2019-04-19T17:25:36.946Z,96276.72
2019-04-19T17:30:42.241Z,96280.94
2019-04-19T17:33:10.442Z,96282.22
2019-04-19T17:35:38.345Z,96281.81
2019-04-19T17:38:06.040Z,96280.63
2019-04-19T17:40:34.472Z,96282.05
2019-04-19T17:43:03.572Z,96288.19
2019-04-19T17:45:31.940Z,96287.84
2019-04-19T17:48:00.657Z,96283.97
2019-04-19T17:50:29.014Z,96292.71
2019-04-19T17:55:40.666Z,96296.36
2019-04-19T17:58:01.116Z,96297.45
2019-04-19T18:00:30.268Z,96299.34
2019-04-19T18:02:57.319Z,96303.33
2019-04-19T18:05:26.343Z,96304.48
2019-04-19T18:07:54.171Z,96301.11
2019-04-19T18:12:57.096Z,96308.97
2019-04-19T18:15:25.733Z,96309.28
2019-04-19T18:20:29.072Z,96320.66
2019-04-19T18:25:33.112Z,96319.13
2019-04-19T18:28:01.627Z,96321.88
2019-04-19T18:33:06.536Z,96324.71
2019-04-19T18:35:35.872Z,96322.20
2019-04-19T18:38:03.229Z,96328.86
2019-04-19T18:40:31.623Z,96326.13
2019-04-19T18:43:14.862Z,96334.87
2019-04-19T18:45:30.640Z,96335.42
2019-04-19T18:47:56.950Z,96339.05
2019-04-19T18:50:26.387Z,96332.49
2019-04-19T18:55:35.227Z,96339.61
2019-04-19T19:00:35.609Z,96347.77
2019-04-19T19:03:05.933Z,96351.70
2019-04-19T19:05:36.850Z,96354.50
2019-04-19T19:08:09.418Z,96353.81
2019-04-19T19:10:37.535Z,96351.27
2019-04-19T19:15:41.917Z,96355.94
2019-04-19T19:18:02.967Z,96355.58
2019-04-19T19:20:34.494Z,96354.70
2019-04-19T19:23:15.347Z,96359.61
2019-04-19T19:28:06.417Z,96362.98
2019-04-19T19:38:19.776Z,96359.29
2019-04-19T19:40:58.341Z,96361.00
2019-04-19T19:41:56.627Z,96360.43
2019-04-19T19:43:29.304Z,96363.75
2019-04-19T19:45:51.477Z,96361.53
2019-04-19T19:48:26.064Z,96359.34
2019-04-19T19:50:58.841Z,96364.81
2019-04-19T19:53:38.598Z,96358.05
2019-04-19T19:56:05.358Z,96364.86
2019-04-19T19:58:16.078Z,96364.63
2019-04-19T20:00:43.050Z,96366.61
2019-04-19T20:03:12.515Z,96367.56
2019-04-19T20:05:33.275Z,96367.59
2019-04-19T20:07:57.445Z,96367.65
2019-04-19T20:13:06.235Z,96370.67
2019-04-19T20:15:33.896Z,96370.95
2019-04-19T20:18:00.243Z,96367.63
2019-04-19T20:20:32.985Z,96368.64
2019-04-19T20:22:58.201Z,96369.20
2019-04-19T20:28:01.392Z,96366.35
2019-04-19T20:30:36.980Z,96369.08
2019-04-19T20:33:01.177Z,96370.05
2019-04-19T20:35:28.089Z,96366.50
2019-04-19T20:37:58.621Z,96366.19
2019-04-19T20:43:20.464Z,96368.84
2019-04-19T20:45:36.976Z,96370.59
2019-04-19T20:47:57.911Z,96370.31
2019-04-19T20:53:18.286Z,96375.33
2019-04-19T20:58:19.188Z,96376.16
2019-04-19T21:03:14.752Z,96374.63
2019-04-19T21:08:15.921Z,96376.28
2019-04-19T21:10:50.008Z,96372.84
2019-04-19T21:13:15.183Z,96374.75
2019-04-19T21:15:40.566Z,96374.61
2019-04-19T21:18:09.600Z,96377.34
2019-04-19T21:23:16.658Z,96377.39
2019-04-19T21:30:54.115Z,96371.65
2019-04-19T21:33:18.404Z,96375.77
2019-04-19T21:35:50.191Z,96375.73
2019-04-19T21:38:17.689Z,96374.09
2019-04-19T21:40:43.611Z,96371.66
2019-04-19T21:43:10.015Z,96369.44
2019-04-19T21:45:41.876Z,96373.15
2019-04-19T21:48:06.002Z,96374.14
2019-04-19T21:50:41.247Z,96374.86
2019-04-19T21:53:08.552Z,96372.71
2019-04-19T21:55:38.610Z,96376.03
2019-04-19T22:00:36.791Z,96380.94
2019-04-19T22:03:05.791Z,96385.95
2019-04-19T22:05:35.701Z,96384.78
2019-04-19T22:08:00.687Z,96388.41
2019-04-19T22:10:34.579Z,96389.60
2019-04-19T22:12:58.696Z,96389.97
2019-04-19T22:15:25.831Z,96385.92
2019-04-19T22:18:01.382Z,96386.38
2019-04-19T22:20:25.022Z,96385.72
2019-04-19T22:22:53.908Z,96391.39
2019-04-19T22:25:36.313Z,96386.38
2019-04-19T22:27:49.626Z,96386.98
2019-04-19T22:30:17.976Z,96384.50
2019-04-19T22:32:51.219Z,96381.70
2019-04-19T22:35:18.490Z,96383.42
2019-04-19T22:37:43.224Z,96385.38
2019-04-19T22:40:11.063Z,96385.80
2019-04-19T22:42:48.616Z,96383.69
2019-04-19T22:45:11.635Z,96387.93
2019-04-19T22:47:37.893Z,96389.98
2019-04-19T22:50:10.846Z,96391.33
2019-04-19T22:52:34.658Z,96386.95
2019-04-19T22:55:08.872Z,96390.31
2019-04-19T23:00:07.589Z,96393.44
2019-04-19T23:05:11.156Z,96390.81
2019-04-19T23:07:46.671Z,96388.14
2019-04-19T23:10:08.750Z,96389.09
2019-04-19T23:12:37.520Z,96387.35
2019-04-19T23:15:10.165Z,96385.45
2019-04-19T23:17:38.054Z,96386.42
2019-04-19T23:20:01.311Z,96386.47
2019-04-19T23:22:34.470Z,96383.08
2019-04-19T23:25:02.177Z,96383.30
2019-04-19T23:27:38.295Z,96383.78
2019-04-19T23:29:56.255Z,96382.45
2019-04-19T23:32:28.579Z,96377.01
2019-04-19T23:37:26.168Z,96377.09
2019-04-19T23:39:55.850Z,96371.73
2019-04-19T23:42:23.030Z,96372.33
2019-04-19T23:47:29.805Z,96372.63
2019-04-19T23:49:57.114Z,96374.58
2019-04-19T23:52:23.403Z,96373.31
2019-04-19T23:54:52.376Z,96369.69
2019-04-19T23:57:25.025Z,96367.66
2019-04-19T23:59:52.423Z,96366.72
